createdAt,value
2018-09-23T00:00:56.607Z,101195.34
2018-09-23T00:03:25.067Z,101194.64
2018-09-23T00:05:53.617Z,101202.89
2018-09-23T00:08:22.514Z,101197.44
2018-09-23T00:10:50.849Z,101196.67
2018-09-23T00:13:19.105Z,101190.73
2018-09-23T00:15:47.341Z,101175.14
2018-09-23T00:18:15.821Z,101154.52
2018-09-23T00:20:44.078Z,101140.59
2018-09-23T00:23:12.402Z,101140.11
2018-09-23T00:25:40.752Z,101134.31
2018-09-23T00:28:09.061Z,101132.63
2018-09-23T00:30:37.438Z,101138.78
2018-09-23T00:33:05.721Z,101128.64
2018-09-23T00:35:34.021Z,101121.83
2018-09-23T00:38:02.333Z,101113.72
2018-09-23T00:40:30.631Z,101114.20
2018-09-23T00:42:58.877Z,101120.18
2018-09-23T00:45:27.176Z,101108.36
2018-09-23T00:47:55.561Z,101060.27
2018-09-23T00:50:23.871Z,101076.47
2018-09-23T00:52:52.105Z,101079.13
2018-09-23T00:55:20.424Z,101060.67
2018-09-23T00:57:48.810Z,101058.78
2018-09-23T01:00:17.201Z,101072.34
2018-09-23T01:02:45.516Z,101066.19
2018-09-23T01:05:14.075Z,101062.70
2018-09-23T01:07:42.326Z,101063.67
2018-09-23T01:10:10.625Z,101061.16
2018-09-23T01:12:38.925Z,101066.33
2018-09-23T01:15:07.301Z,101057.17
2018-09-23T01:17:35.601Z,101048.36
2018-09-23T01:20:03.961Z,101054.37
2018-09-23T01:22:32.267Z,101051.09
2018-09-23T01:25:00.590Z,101052.28
2018-09-23T01:27:28.926Z,101041.52
2018-09-23T01:29:57.313Z,101026.62
2018-09-23T01:32:25.598Z,101017.66
2018-09-23T01:34:53.853Z,101033.61
2018-09-23T01:37:22.179Z,101035.28
2018-09-23T01:39:50.574Z,101037.11
2018-09-23T01:42:18.908Z,101030.67
2018-09-23T01:44:47.159Z,101011.72
2018-09-23T01:47:15.476Z,101015.22
2018-09-23T01:49:43.757Z,101010.22
2018-09-23T01:52:12.034Z,101011.05
2018-09-23T01:54:40.473Z,100986.16
2018-09-23T01:57:08.785Z,100987.48
2018-09-23T01:59:37.090Z,100987.70
2018-09-23T02:02:05.476Z,100980.42
2018-09-23T02:04:33.822Z,100974.47
2018-09-23T02:07:02.197Z,100962.51
2018-09-23T02:09:30.519Z,100961.47
2018-09-23T02:11:58.777Z,100965.59
2018-09-23T02:14:27.049Z,100958.61
2018-09-23T02:16:55.312Z,100949.30
2018-09-23T02:19:23.623Z,100945.46
2018-09-23T02:21:52.027Z,100936.34
2018-09-23T02:24:20.341Z,100944.97
2018-09-23T02:26:48.628Z,100945.31
2018-09-23T02:29:16.886Z,100941.33
2018-09-23T02:31:45.246Z,100939.02
2018-09-23T02:34:13.589Z,100932.37
2018-09-23T02:36:41.946Z,100934.41
2018-09-23T02:39:11.193Z,100931.74
2018-09-23T02:41:39.501Z,100921.11
2018-09-23T02:44:07.744Z,100924.12
2018-09-23T02:46:36.049Z,100923.14
2018-09-23T02:49:04.414Z,100916.14
2018-09-23T02:51:32.767Z,100909.36
2018-09-23T02:54:01.118Z,100915.51
2018-09-23T02:56:29.360Z,100902.56
2018-09-23T02:58:57.728Z,100892.77
2018-09-23T03:01:26.113Z,100876.48
2018-09-23T03:03:54.455Z,100872.98
2018-09-23T03:06:22.784Z,100869.30
2018-09-23T03:08:51.041Z,100863.98
2018-09-23T03:11:19.354Z,100867.96
2018-09-23T03:13:47.699Z,100855.66
2018-09-23T03:16:16.009Z,100842.38
2018-09-23T03:18:44.282Z,100837.41
2018-09-23T03:21:12.542Z,100828.94
2018-09-23T03:23:40.822Z,100817.81
2018-09-23T03:26:09.178Z,100814.47
2018-09-23T03:28:37.520Z,100813.14
2018-09-23T03:31:05.873Z,100813.78
2018-09-23T03:33:34.138Z,100812.80
2018-09-23T03:36:02.420Z,100819.44
2018-09-23T03:38:30.786Z,100830.41
2018-09-23T03:40:59.199Z,100836.07
2018-09-23T03:43:27.488Z,100827.75
2018-09-23T03:45:55.821Z,100814.67
2018-09-23T03:48:24.099Z,100807.38
2018-09-23T03:50:52.387Z,100794.44
2018-09-23T03:53:20.793Z,100796.95
2018-09-23T03:55:49.098Z,100801.28
2018-09-23T03:58:17.371Z,100800.79
2018-09-23T04:00:45.740Z,100791.98
2018-09-23T04:03:14.058Z,100781.00
2018-09-23T04:05:42.366Z,100763.04
2018-09-23T04:08:10.692Z,100758.07
2018-09-23T04:10:39.033Z,100761.08
2018-09-23T04:13:07.339Z,100765.06
2018-09-23T04:15:35.633Z,100745.13
2018-09-23T04:18:03.929Z,100744.98
2018-09-23T04:20:32.242Z,100744.30
2018-09-23T04:23:00.562Z,100746.47
2018-09-23T04:25:28.845Z,100739.33
2018-09-23T04:27:57.173Z,100742.83
2018-09-23T04:30:25.554Z,100736.53
2018-09-23T04:32:53.937Z,100736.67
2018-09-23T04:35:22.313Z,100736.33
2018-09-23T04:37:50.702Z,100732.53
2018-09-23T04:40:19.011Z,100720.08
2018-09-23T04:42:47.257Z,100708.95
2018-09-23T04:45:15.599Z,100703.11
2018-09-23T04:47:43.902Z,100705.11
2018-09-23T04:50:12.295Z,100701.62
2018-09-23T04:52:40.545Z,100698.42
2018-09-23T04:55:08.919Z,100699.95
2018-09-23T04:57:37.214Z,100700.93
2018-09-23T05:00:05.771Z,100699.95
2018-09-23T05:02:34.129Z,100697.25
2018-09-23T05:05:02.787Z,100699.56
2018-09-23T05:07:31.159Z,100696.06
2018-09-23T05:09:59.513Z,100692.92
2018-09-23T05:12:27.924Z,100698.58
2018-09-23T05:14:56.275Z,100692.13
2018-09-23T05:17:24.590Z,100683.51
2018-09-23T05:19:52.944Z,100696.98
2018-09-23T05:22:21.282Z,100691.67
2018-09-23T05:24:49.613Z,100685.69
2018-09-23T05:27:18.054Z,100682.19
2018-09-23T05:29:46.409Z,100689.67
2018-09-23T05:32:14.809Z,100692.48
2018-09-23T05:34:43.075Z,100693.16
2018-09-23T05:37:11.886Z,100681.05
2018-09-23T05:39:40.715Z,100672.93
2018-09-23T05:42:09.107Z,100672.28
2018-09-23T05:44:38.890Z,100662.83
2018-09-23T05:47:07.199Z,100665.14
2018-09-23T05:49:35.923Z,100667.80
2018-09-23T05:52:04.229Z,100668.79
2018-09-23T05:54:32.831Z,100656.48
2018-09-23T05:57:01.219Z,100658.00
2018-09-23T05:59:36.124Z,100661.34
2018-09-23T06:02:04.528Z,100662.52
2018-09-23T06:04:32.890Z,100656.22
2018-09-23T06:07:01.218Z,100644.25
2018-09-23T06:09:29.539Z,100638.94
2018-09-23T06:11:57.856Z,100640.12
2018-09-23T06:14:26.213Z,100644.25
2018-09-23T06:16:54.554Z,100646.73
2018-09-23T06:19:22.958Z,100644.72
2018-09-23T06:21:52.137Z,100641.56
2018-09-23T06:24:20.426Z,100634.58
2018-09-23T06:26:48.861Z,100643.87
2018-09-23T06:29:17.169Z,100645.20
2018-09-23T06:31:45.493Z,100644.56
2018-09-23T06:34:13.833Z,100643.58
2018-09-23T06:36:42.169Z,100626.64
2018-09-23T06:39:11.149Z,100622.00
2018-09-23T06:41:39.478Z,100621.66
2018-09-23T06:44:07.889Z,100620.03
2018-09-23T06:46:36.238Z,100627.36
2018-09-23T06:49:04.703Z,100625.04
2018-09-23T06:51:33.042Z,100626.71
2018-09-23T06:54:01.335Z,100615.09
2018-09-23T06:56:29.755Z,100613.27
2018-09-23T06:58:58.238Z,100616.97
2018-09-23T07:01:26.637Z,100616.82
2018-09-23T07:03:54.957Z,100611.81
2018-09-23T07:06:23.262Z,100614.81
2018-09-23T07:08:51.707Z,100612.34
2018-09-23T07:11:20.039Z,100608.69
2018-09-23T07:13:48.391Z,100607.05
2018-09-23T07:16:16.725Z,100603.40
2018-09-23T07:18:45.044Z,100598.91
2018-09-23T07:21:13.322Z,100595.27
2018-09-23T07:23:41.741Z,100601.27
2018-09-23T07:26:09.978Z,100606.24
2018-09-23T07:28:38.254Z,100607.91
2018-09-23T07:31:07.115Z,100604.91
2018-09-23T07:33:35.395Z,100602.25
2018-09-23T07:36:03.717Z,100594.95
2018-09-23T07:38:32.198Z,100596.28
2018-09-23T07:41:00.487Z,100594.27
2018-09-23T07:43:28.857Z,100589.29
2018-09-23T07:45:57.189Z,100597.11
2018-09-23T07:48:25.623Z,100596.31
2018-09-23T07:50:53.936Z,100603.30
2018-09-23T07:53:22.313Z,100604.78
2018-09-23T07:55:50.648Z,100596.31
2018-09-23T07:58:18.961Z,100583.69
2018-09-23T08:00:47.281Z,100583.03
2018-09-23T08:03:15.712Z,100584.88
2018-09-23T08:05:43.983Z,100583.55
2018-09-23T08:08:12.335Z,100589.36
2018-09-23T08:10:40.683Z,100585.06
2018-09-23T08:13:09.153Z,100581.09
2018-09-23T08:15:37.307Z,100580.77
2018-09-23T08:18:05.889Z,100572.97
2018-09-23T08:20:34.319Z,100571.30
2018-09-23T08:23:02.903Z,100566.15
2018-09-23T08:25:31.273Z,100561.84
2018-09-23T08:27:59.721Z,100563.84
2018-09-23T08:30:28.050Z,100561.52
2018-09-23T08:32:56.402Z,100559.86
2018-09-23T08:35:24.667Z,100560.35
2018-09-23T08:37:52.964Z,100564.84
2018-09-23T08:40:21.282Z,100553.02
2018-09-23T08:42:49.663Z,100552.86
2018-09-23T08:45:17.887Z,100542.22
2018-09-23T08:47:46.306Z,100532.41
2018-09-23T08:50:14.550Z,100533.91
2018-09-23T08:52:42.881Z,100549.23
2018-09-23T08:55:11.186Z,100548.20
2018-09-23T08:57:39.510Z,100540.22
2018-09-23T09:00:08.334Z,100530.58
2018-09-23T09:02:36.662Z,100519.27
2018-09-23T09:05:05.624Z,100515.95
2018-09-23T09:07:33.951Z,100502.32
2018-09-23T09:10:02.286Z,100496.00
2018-09-23T09:12:30.676Z,100493.02
2018-09-23T09:14:58.989Z,100488.33
2018-09-23T09:17:27.354Z,100486.01
2018-09-23T09:19:55.706Z,100478.02
2018-09-23T09:22:24.070Z,100477.02
2018-09-23T09:24:52.419Z,100482.68
2018-09-23T09:27:20.754Z,100474.53
2018-09-23T09:29:49.122Z,100471.70
2018-09-23T09:32:17.463Z,100466.72
2018-09-23T09:34:45.737Z,100459.89
2018-09-23T09:37:14.154Z,100450.41
2018-09-23T09:39:42.444Z,100447.42
2018-09-23T09:42:10.828Z,100447.89
2018-09-23T09:44:39.272Z,100454.72
2018-09-23T09:47:07.653Z,100442.41
2018-09-23T09:49:35.935Z,100440.91
2018-09-23T09:52:04.307Z,100437.41
2018-09-23T09:54:32.644Z,100424.09
2018-09-23T09:57:01.030Z,100428.42
2018-09-23T09:59:30.065Z,100411.95
2018-09-23T10:01:58.398Z,100408.16
2018-09-23T10:04:26.760Z,100392.14
2018-09-23T10:06:55.051Z,100394.14
2018-09-23T10:09:24.192Z,100383.48
2018-09-23T10:11:52.493Z,100365.00
2018-09-23T10:14:20.837Z,100356.67
2018-09-23T10:16:49.225Z,100349.31
2018-09-23T10:19:17.625Z,100346.30
2018-09-23T10:21:46.038Z,100343.97
2018-09-23T10:24:14.464Z,100335.82
2018-09-23T10:26:43.138Z,100334.02
2018-09-23T10:29:11.625Z,100327.03
2018-09-23T10:31:40.005Z,100321.21
2018-09-23T10:34:08.289Z,100326.05
2018-09-23T10:36:37.107Z,100313.58
2018-09-23T10:39:08.124Z,100305.80
2018-09-23T10:41:36.526Z,100291.66
2018-09-23T10:44:05.232Z,100287.70
2018-09-23T10:46:33.549Z,100286.38
2018-09-23T10:49:02.109Z,100287.04
2018-09-23T10:51:30.510Z,100291.53
2018-09-23T10:53:58.832Z,100295.02
2018-09-23T10:56:27.177Z,100301.67
2018-09-23T10:58:55.545Z,100325.63
2018-09-23T11:01:24.135Z,100334.62
2018-09-23T11:03:52.610Z,100333.62
2018-09-23T11:06:20.812Z,100325.97
2018-09-23T11:08:49.205Z,100316.81
2018-09-23T11:11:17.682Z,100296.52
2018-09-23T11:13:45.978Z,100280.39
2018-09-23T11:16:14.399Z,100290.03
2018-09-23T11:18:42.818Z,100287.04
2018-09-23T11:21:11.169Z,100275.06
2018-09-23T11:23:39.547Z,100256.42
2018-09-23T11:26:07.903Z,100250.77
2018-09-23T11:28:36.189Z,100271.56
2018-09-23T11:31:04.563Z,100256.92
2018-09-23T11:33:32.866Z,100244.11
2018-09-23T11:36:01.793Z,100230.48
2018-09-23T11:38:30.139Z,100198.86
2018-09-23T11:40:58.607Z,100183.05
2018-09-23T11:43:26.889Z,100162.92
2018-09-23T11:45:55.280Z,100144.57
2018-09-23T11:48:23.628Z,100138.92
2018-09-23T11:50:52.021Z,100121.78
2018-09-23T11:53:20.350Z,100119.30
2018-09-23T11:55:48.748Z,100127.33
2018-09-23T11:58:17.186Z,100152.61
2018-09-23T12:00:45.531Z,100183.22
2018-09-23T12:03:13.793Z,100215.50
2018-09-23T12:05:42.131Z,100248.45
2018-09-23T12:08:10.470Z,100222.03
2018-09-23T12:10:38.930Z,100240.50
2018-09-23T12:13:07.251Z,100193.60
2018-09-23T12:15:35.754Z,100144.05
2018-09-23T12:18:04.821Z,100151.20
2018-09-23T12:20:33.071Z,100128.08
2018-09-23T12:23:01.437Z,100162.33
2018-09-23T12:25:29.721Z,100203.74
2018-09-23T12:27:57.999Z,100201.59
2018-09-23T12:30:26.387Z,100191.65
2018-09-23T12:32:54.737Z,100191.65
2018-09-23T12:35:23.042Z,100208.61
2018-09-23T12:37:51.368Z,100212.59
2018-09-23T12:40:19.848Z,100234.21
2018-09-23T12:42:48.186Z,100253.03
2018-09-23T12:45:16.450Z,100284.11
2018-09-23T12:47:44.820Z,100307.73
2018-09-23T12:50:13.144Z,100321.00
2018-09-23T12:52:41.493Z,100274.81
2018-09-23T12:55:10.041Z,100266.14
2018-09-23T12:57:38.608Z,100287.75
2018-09-23T13:00:07.125Z,100331.64
2018-09-23T13:02:35.530Z,100323.16
2018-09-23T13:05:04.083Z,100289.09
2018-09-23T13:07:32.585Z,100290.09
2018-09-23T13:10:00.989Z,100290.09
2018-09-23T13:12:29.454Z,100258.52
2018-09-23T13:14:57.997Z,100273.14
2018-09-23T13:17:26.370Z,100285.11
2018-09-23T13:19:54.702Z,100282.45
2018-09-23T13:22:23.105Z,100311.36
2018-09-23T13:24:51.467Z,100317.67
2018-09-23T13:27:19.773Z,100322.81
2018-09-23T13:29:48.072Z,100325.33
2018-09-23T13:32:16.489Z,100329.61
2018-09-23T13:34:44.836Z,100365.84
2018-09-23T13:37:13.174Z,100357.73
2018-09-23T13:39:42.800Z,100335.28
2018-09-23T13:42:11.168Z,100325.48
2018-09-23T13:44:39.481Z,100349.27
2018-09-23T13:47:07.887Z,100356.90
2018-09-23T13:49:36.218Z,100294.23
2018-09-23T13:52:04.694Z,100304.38
2018-09-23T13:54:33.043Z,100349.27
2018-09-23T13:57:01.383Z,100358.91
2018-09-23T13:59:29.758Z,100372.36
2018-09-23T14:01:58.131Z,100355.57
2018-09-23T14:04:26.432Z,100378.17
2018-09-23T14:06:54.753Z,100405.44
2018-09-23T14:09:23.051Z,100423.54
2018-09-23T14:11:51.434Z,100420.89
2018-09-23T14:14:19.751Z,100412.91
2018-09-23T14:16:48.224Z,100429.81
2018-09-23T14:19:16.528Z,100418.14
2018-09-23T14:21:44.808Z,100423.78
2018-09-23T14:24:13.212Z,100423.58
2018-09-23T14:26:41.536Z,100436.19
2018-09-23T14:29:09.877Z,100449.64
2018-09-23T14:31:38.240Z,100444.83
2018-09-23T14:34:06.639Z,100455.77
2018-09-23T14:36:39.212Z,100472.85
2018-09-23T14:39:09.413Z,100482.65
2018-09-23T14:41:37.959Z,100490.44
2018-09-23T14:44:06.313Z,100490.09
2018-09-23T14:46:34.683Z,100509.34
2018-09-23T14:49:03.036Z,100510.17
2018-09-23T14:51:31.282Z,100521.14
2018-09-23T14:53:59.682Z,100525.09
2018-09-23T14:56:28.103Z,100541.00
2018-09-23T14:58:56.451Z,100556.10
2018-09-23T15:01:24.742Z,100567.94
2018-09-23T15:03:53.102Z,100562.82
2018-09-23T15:06:21.452Z,100559.33
2018-09-23T15:08:49.722Z,100565.66
2018-09-23T15:11:18.231Z,100561.69
2018-09-23T15:13:46.523Z,100574.62
2018-09-23T15:16:14.786Z,100588.90
2018-09-23T15:18:43.056Z,100597.86
2018-09-23T15:21:11.350Z,100619.45
2018-09-23T15:23:39.653Z,100607.11
2018-09-23T15:26:07.951Z,100602.30
2018-09-23T15:28:36.274Z,100617.25
2018-09-23T15:31:04.548Z,100631.86
2018-09-23T15:33:32.825Z,100631.66
2018-09-23T15:36:01.255Z,100636.10
2018-09-23T15:38:29.630Z,100647.40
2018-09-23T15:40:57.878Z,100647.20
2018-09-23T15:43:26.218Z,100650.50
2018-09-23T15:45:54.498Z,100668.75
2018-09-23T15:48:22.877Z,100676.38
2018-09-23T15:50:51.164Z,100688.67
2018-09-23T15:53:19.456Z,100694.33
2018-09-23T15:55:47.766Z,100697.67
2018-09-23T15:58:15.993Z,100701.17
2018-09-23T16:00:44.249Z,100698.17
2018-09-23T16:03:12.540Z,100701.17
2018-09-23T16:05:40.830Z,100713.32
2018-09-23T16:08:09.186Z,100732.06
2018-09-23T16:10:37.418Z,100738.16
2018-09-23T16:13:05.739Z,100745.44
2018-09-23T16:15:34.066Z,100759.50
2018-09-23T16:18:02.348Z,100773.91
2018-09-23T16:20:30.760Z,100786.01
2018-09-23T16:22:59.003Z,100801.58
2018-09-23T16:25:27.336Z,100809.69
2018-09-23T16:27:55.749Z,100827.58
2018-09-23T16:30:24.122Z,100847.44
2018-09-23T16:32:52.386Z,100853.55
2018-09-23T16:35:20.643Z,100858.31
2018-09-23T16:37:48.973Z,100869.91
2018-09-23T16:40:17.202Z,100884.59
2018-09-23T16:42:45.582Z,100899.13
2018-09-23T16:45:13.964Z,100906.07
2018-09-23T16:47:42.271Z,100929.68
2018-09-23T16:50:10.532Z,100943.20
2018-09-23T16:52:38.877Z,100960.19
2018-09-23T16:55:13.714Z,100964.72
2018-09-23T16:57:42.175Z,100980.30
2018-09-23T17:00:10.476Z,100987.55
2018-09-23T17:02:38.741Z,100999.27
2018-09-23T17:05:07.004Z,101007.19
2018-09-23T17:07:35.402Z,101023.73
2018-09-23T17:10:03.714Z,101035.23
2018-09-23T17:12:32.016Z,101040.05
2018-09-23T17:15:00.286Z,101054.76
2018-09-23T17:17:28.557Z,101064.56
2018-09-23T17:19:56.897Z,101079.41
2018-09-23T17:22:26.190Z,101090.99
2018-09-23T17:24:54.497Z,101100.83
2018-09-23T17:27:22.804Z,101113.63
2018-09-23T17:29:51.080Z,101117.52
2018-09-23T17:32:19.337Z,101125.78
2018-09-23T17:34:47.724Z,101126.27
2018-09-23T17:37:15.996Z,101139.52
2018-09-23T17:39:44.285Z,101150.26
2018-09-23T17:42:12.597Z,101156.05
2018-09-23T17:44:40.952Z,101160.14
2018-09-23T17:47:09.292Z,101168.70
2018-09-23T17:49:37.617Z,101171.12
2018-09-23T17:52:05.886Z,101178.11
2018-09-23T17:54:34.232Z,101193.89
2018-09-23T17:57:02.504Z,101192.56
2018-09-23T17:59:31.210Z,101207.02
2018-09-23T18:01:59.664Z,101218.94
2018-09-23T18:04:27.954Z,101228.22
2018-09-23T18:06:56.297Z,101244.12
2018-09-23T18:09:24.735Z,101255.08
2018-09-23T18:11:52.983Z,101262.31
2018-09-23T18:14:21.361Z,101268.22
2018-09-23T18:16:49.697Z,101288.59
2018-09-23T18:19:18.026Z,101299.31
2018-09-23T18:21:46.362Z,101301.00
2018-09-23T18:24:14.576Z,101319.19
2018-09-23T18:26:43.574Z,101328.34
2018-09-23T18:29:11.941Z,101337.62
2018-09-23T18:31:40.223Z,101348.83
2018-09-23T18:34:08.549Z,101349.10
2018-09-23T18:36:36.814Z,101354.53
2018-09-23T18:39:07.884Z,101362.00
2018-09-23T18:41:36.271Z,101374.41
2018-09-23T18:44:04.522Z,101374.41
2018-09-23T18:46:32.795Z,101382.72
2018-09-23T18:49:01.969Z,101386.69
2018-09-23T18:51:30.253Z,101401.14
2018-09-23T18:54:03.745Z,101411.02
2018-09-23T18:56:31.992Z,101430.05
2018-09-23T18:59:00.408Z,101432.70
2018-09-23T19:01:28.758Z,101432.46
2018-09-23T19:03:56.993Z,101442.34
2018-09-23T19:06:25.257Z,101443.31
2018-09-23T19:08:53.514Z,101447.52
2018-09-23T19:11:21.760Z,101452.70
2018-09-23T19:13:52.995Z,101461.73
2018-09-23T19:16:26.604Z,101466.07
2018-09-23T19:18:56.058Z,101470.16
2018-09-23T19:21:25.128Z,101479.67
2018-09-23T19:23:53.538Z,101492.68
2018-09-23T19:26:22.092Z,101498.84
2018-09-23T19:28:50.342Z,101506.30
2018-09-23T19:31:18.671Z,101519.53
2018-09-23T19:33:46.934Z,101535.66
2018-09-23T19:36:15.251Z,101537.95
2018-09-23T19:38:43.541Z,101546.47
2018-09-23T19:41:11.793Z,101554.42
2018-09-23T19:43:40.049Z,101556.45
2018-09-23T19:46:08.364Z,101573.31
2018-09-23T19:48:36.661Z,101576.69
2018-09-23T19:51:05.060Z,101579.70
2018-09-23T19:53:33.321Z,101593.53
2018-09-23T19:56:01.603Z,101605.33
2018-09-23T19:58:29.936Z,101611.73
2018-09-23T20:00:58.363Z,101608.48
2018-09-23T20:03:26.626Z,101613.19
2018-09-23T20:05:54.900Z,101612.97
2018-09-23T20:08:24.068Z,101617.53
2018-09-23T20:10:52.373Z,101613.42
2018-09-23T20:13:20.746Z,101616.19
2018-09-23T20:15:49.296Z,101624.83
2018-09-23T20:18:17.537Z,101631.20
2018-09-23T20:20:45.799Z,101636.98
2018-09-23T20:23:14.096Z,101650.81
2018-09-23T20:25:42.350Z,101659.34
2018-09-23T20:28:10.687Z,101662.21
2018-09-23T20:30:39.080Z,101659.94
2018-09-23T20:33:07.480Z,101678.95
2018-09-23T20:35:35.729Z,101680.27
2018-09-23T20:38:03.972Z,101686.89
2018-09-23T20:40:32.292Z,101695.67
2018-09-23T20:43:00.616Z,101707.22
2018-09-23T20:45:28.870Z,101713.47
2018-09-23T20:47:57.145Z,101721.94
2018-09-23T20:50:25.630Z,101719.62
2018-09-23T20:52:54.008Z,101724.44
2018-09-23T20:55:22.302Z,101732.63
2018-09-23T20:57:50.668Z,101742.97
2018-09-23T21:00:18.936Z,101748.26
2018-09-23T21:02:47.418Z,101747.30
2018-09-23T21:05:15.683Z,101754.77
2018-09-23T21:07:44.073Z,101768.12
2018-09-23T21:10:12.404Z,101769.81
2018-09-23T21:12:40.668Z,101770.24
2018-09-23T21:15:09.675Z,101773.37
2018-09-23T21:17:38.103Z,101776.02
2018-09-23T21:20:06.782Z,101781.05
2018-09-23T21:22:35.060Z,101786.23
2018-09-23T21:25:03.336Z,101793.22
2018-09-23T21:27:31.621Z,101799.00
2018-09-23T21:29:59.884Z,101809.48
2018-09-23T21:32:28.138Z,101810.33
2018-09-23T21:34:56.547Z,101817.69
2018-09-23T21:37:24.822Z,101817.58
2018-09-23T21:39:53.180Z,101822.88
2018-09-23T21:42:21.425Z,101829.23
2018-09-23T21:44:49.696Z,101842.36
2018-09-23T21:47:17.986Z,101848.13
2018-09-23T21:49:46.321Z,101851.73
2018-09-23T21:52:15.512Z,101861.21
2018-09-23T21:54:43.948Z,101862.38
2018-09-23T21:57:12.172Z,101873.10
2018-09-23T21:59:40.425Z,101875.75
2018-09-23T22:02:08.730Z,101882.60
2018-09-23T22:04:37.118Z,101885.99
2018-09-23T22:07:05.455Z,101894.69
2018-09-23T22:09:33.742Z,101901.41
2018-09-23T22:12:02.010Z,101903.68
2018-09-23T22:14:30.341Z,101905.00
2018-09-23T22:16:59.536Z,101912.09
2018-09-23T22:19:27.846Z,101911.52
2018-09-23T22:21:56.171Z,101922.86
2018-09-23T22:24:24.410Z,101928.94
2018-09-23T22:26:52.711Z,101935.55
2018-09-23T22:29:21.014Z,101938.30
2018-09-23T22:31:49.261Z,101953.95
2018-09-23T22:34:17.524Z,101954.42
2018-09-23T22:36:45.798Z,101962.84
2018-09-23T22:39:14.096Z,101963.80
2018-09-23T22:41:42.344Z,101960.98
2018-09-23T22:44:10.654Z,101969.13
2018-09-23T22:46:38.902Z,101974.41
2018-09-23T22:49:07.185Z,101980.45
2018-09-23T22:51:35.456Z,101987.99
2018-09-23T22:54:03.745Z,101993.33
2018-09-23T22:56:32.033Z,101997.94
2018-09-23T22:59:00.261Z,101999.09
2018-09-23T23:01:28.594Z,102012.13
2018-09-23T23:03:56.859Z,102011.83
2018-09-23T23:06:25.149Z,102022.11
2018-09-23T23:08:53.428Z,102017.80
2018-09-23T23:11:21.753Z,102029.99
2018-09-23T23:13:49.985Z,102032.06
2018-09-23T23:16:18.240Z,102038.69
2018-09-23T23:18:46.534Z,102041.70
2018-09-23T23:21:14.841Z,102046.53
2018-09-23T23:23:43.403Z,102050.60
2018-09-23T23:26:11.645Z,102054.78
2018-09-23T23:28:39.902Z,102058.38
2018-09-23T23:31:08.181Z,102066.18
2018-09-23T23:33:36.460Z,102063.02
2018-09-23T23:36:04.849Z,102075.55
2018-09-23T23:38:33.166Z,102081.52
2018-09-23T23:41:01.407Z,102096.56
2018-09-23T23:43:29.710Z,102099.50
2018-09-23T23:45:58.031Z,102097.43
2018-09-23T23:48:26.357Z,102106.80
2018-09-23T23:50:54.630Z,102110.15
2018-09-23T23:53:22.841Z,102116.02
2018-09-23T23:55:51.111Z,102127.92
2018-09-23T23:58:19.565Z,102133.42
